createdAt,value
2023-02-28T00:00:31.641Z,6.13
2023-02-28T00:01:06.024Z,5.80
2023-02-28T00:01:41.319Z,5.60
2023-02-28T00:02:15.624Z,5.43
2023-02-28T00:02:50.286Z,6.18
2023-02-28T00:03:25.688Z,6.18
2023-02-28T00:04:01.266Z,6.38
2023-02-28T00:04:35.140Z,6.30
2023-02-28T00:05:11.218Z,6.30
2023-02-28T00:05:46.199Z,6.63
2023-02-28T00:06:20.637Z,6.90
2023-02-28T00:06:55.257Z,6.72
2023-02-28T00:07:30.380Z,6.80
2023-02-28T00:08:06.746Z,7.10
2023-02-28T00:08:41.927Z,7.05
2023-02-28T00:09:17.076Z,9.13
2023-02-28T00:09:51.055Z,6.82
2023-02-28T00:10:28.217Z,6.78
2023-02-28T00:11:04.518Z,6.47
2023-02-28T00:11:39.626Z,6.82
2023-02-28T00:12:15.945Z,6.68
2023-02-28T00:12:51.330Z,7.38
2023-02-28T00:13:24.863Z,6.57
2023-02-28T00:14:00.436Z,6.68
2023-02-28T00:14:35.745Z,6.03
2023-02-28T00:15:10.578Z,6.95
2023-02-28T00:15:47.037Z,6.72
2023-02-28T00:16:20.887Z,6.68
2023-02-28T00:16:56.230Z,6.85
2023-02-28T00:17:29.866Z,6.55
2023-02-28T00:18:04.828Z,6.35
2023-02-28T00:18:39.586Z,7.00
2023-02-28T00:19:15.342Z,6.95
2023-02-28T00:19:49.857Z,7.13
2023-02-28T00:20:26.127Z,7.65
2023-02-28T00:21:00.577Z,6.93
2023-02-28T00:21:35.978Z,6.63
2023-02-28T00:22:09.769Z,6.70
2023-02-28T00:22:44.187Z,7.05
2023-02-28T00:23:20.099Z,6.68
2023-02-28T00:23:54.582Z,6.65
2023-02-28T00:24:28.992Z,6.40
2023-02-28T00:25:02.501Z,6.90
2023-02-28T00:25:36.181Z,6.65
2023-02-28T00:26:11.276Z,6.38
2023-02-28T00:26:47.126Z,6.28
2023-02-28T00:27:20.904Z,7.03
2023-02-28T00:27:57.287Z,6.57
2023-02-28T00:28:30.964Z,6.60
2023-02-28T00:29:06.511Z,7.10
2023-02-28T00:29:43.758Z,6.53
2023-02-28T00:30:19.079Z,6.47
2023-02-28T00:30:53.535Z,7.05
2023-02-28T00:31:28.272Z,6.93
2023-02-28T00:32:02.013Z,6.25
2023-02-28T00:32:37.749Z,6.70
2023-02-28T00:33:11.527Z,6.30
2023-02-28T00:33:45.106Z,6.50
2023-02-28T00:34:19.211Z,6.63
2023-02-28T00:34:54.618Z,7.10
2023-02-28T00:35:28.849Z,6.20
2023-02-28T00:36:07.901Z,6.70
2023-02-28T00:36:47.091Z,5.97
2023-02-28T00:37:21.448Z,6.20
2023-02-28T00:37:56.232Z,6.63
2023-02-28T00:38:29.895Z,6.55
2023-02-28T00:39:04.384Z,6.60
2023-02-28T00:39:40.031Z,6.82
2023-02-28T00:40:14.042Z,6.40
2023-02-28T00:40:48.307Z,6.78
2023-02-28T00:41:23.519Z,6.60
2023-02-28T00:41:57.548Z,7.53
2023-02-28T00:42:32.437Z,6.80
2023-02-28T00:43:07.259Z,7.13
2023-02-28T00:43:41.043Z,6.63
2023-02-28T00:44:14.901Z,6.40
2023-02-28T00:44:50.812Z,6.25
2023-02-28T00:45:24.926Z,6.93
2023-02-28T00:45:58.835Z,6.90
2023-02-28T00:46:35.346Z,6.47
2023-02-28T00:47:08.926Z,6.70
2023-02-28T00:47:42.107Z,6.45
2023-02-28T00:48:17.206Z,6.65
2023-02-28T00:48:51.299Z,6.60
2023-02-28T00:49:25.170Z,7.03
2023-02-28T00:49:59.858Z,6.28
2023-02-28T00:50:33.797Z,6.53
2023-02-28T00:51:08.246Z,5.90
2023-02-28T00:51:43.001Z,6.50
2023-02-28T00:52:17.111Z,6.38
2023-02-28T00:52:51.958Z,6.65
2023-02-28T00:53:28.453Z,6.80
2023-02-28T00:54:06.211Z,5.95
2023-02-28T00:54:40.542Z,6.07
2023-02-28T00:55:14.812Z,6.38
2023-02-28T00:55:50.316Z,6.28
2023-02-28T00:56:23.958Z,6.85
2023-02-28T00:56:58.234Z,6.32
2023-02-28T00:57:34.126Z,6.63
2023-02-28T00:58:07.794Z,6.93
2023-02-28T00:58:41.669Z,6.97
2023-02-28T00:59:16.824Z,6.88
2023-02-28T00:59:55.548Z,5.80
2023-02-28T01:00:29.797Z,6.40
2023-02-28T01:01:05.018Z,6.55
2023-02-28T01:01:39.045Z,6.63
2023-02-28T01:02:13.326Z,6.90
2023-02-28T01:02:48.236Z,6.45
2023-02-28T01:03:22.344Z,6.93
2023-02-28T01:03:57.544Z,6.70
2023-02-28T01:04:32.246Z,6.35
2023-02-28T01:05:09.155Z,6.25
2023-02-28T01:05:43.461Z,6.68
2023-02-28T01:06:17.655Z,6.75
2023-02-28T01:06:52.885Z,6.40
2023-02-28T01:07:27.600Z,6.65
2023-02-28T01:08:01.296Z,6.50
2023-02-28T01:08:36.569Z,6.53
2023-02-28T01:09:10.825Z,9.77
2023-02-28T01:09:45.753Z,7.22
2023-02-28T01:10:22.512Z,6.53
2023-02-28T01:10:57.216Z,6.45
2023-02-28T01:11:31.344Z,7.05
2023-02-28T01:12:07.310Z,6.97
2023-02-28T01:12:41.110Z,6.25
2023-02-28T01:13:15.362Z,6.65
2023-02-28T01:13:50.075Z,6.60
2023-02-28T01:14:23.767Z,6.57
2023-02-28T01:14:58.984Z,6.40
2023-02-28T01:15:34.776Z,6.70
2023-02-28T01:16:09.022Z,6.68
2023-02-28T01:16:42.713Z,6.15
2023-02-28T01:17:17.864Z,6.80
2023-02-28T01:17:50.964Z,6.45
2023-02-28T01:18:27.317Z,6.38
2023-02-28T01:19:01.063Z,6.65
2023-02-28T01:19:34.769Z,6.38
2023-02-28T01:20:12.540Z,6.88
2023-02-28T01:20:47.869Z,6.60
2023-02-28T01:21:24.122Z,6.28
2023-02-28T01:21:58.783Z,6.50
2023-02-28T01:22:32.163Z,6.53
2023-02-28T01:23:06.791Z,6.78
2023-02-28T01:23:43.326Z,6.93
2023-02-28T01:24:17.705Z,6.45
2023-02-28T01:24:51.607Z,6.85
2023-02-28T01:25:26.264Z,6.72
2023-02-28T01:26:00.031Z,6.65
2023-02-28T01:26:34.432Z,6.43
2023-02-28T01:27:08.968Z,6.43
2023-02-28T01:27:45.548Z,5.90
2023-02-28T01:28:20.199Z,6.55
2023-02-28T01:28:55.042Z,6.68
2023-02-28T01:29:29.138Z,6.40
2023-02-28T01:30:05.461Z,6.47
2023-02-28T01:30:39.708Z,6.18
2023-02-28T01:31:14.142Z,6.95
2023-02-28T01:31:49.216Z,6.53
2023-02-28T01:32:23.757Z,6.55
2023-02-28T01:32:58.402Z,6.57
2023-02-28T01:33:33.765Z,6.80
2023-02-28T01:34:07.982Z,6.97
2023-02-28T01:34:42.900Z,6.50
2023-02-28T01:35:18.510Z,7.00
2023-02-28T01:35:59.877Z,6.25
2023-02-28T01:36:35.178Z,6.50
2023-02-28T01:37:09.322Z,6.18
2023-02-28T01:37:43.618Z,6.30
2023-02-28T01:38:22.947Z,5.88
2023-02-28T01:38:56.424Z,6.68
2023-02-28T01:39:30.950Z,6.03
2023-02-28T01:40:04.882Z,6.38
2023-02-28T01:40:39.028Z,6.32
2023-02-28T01:41:18.268Z,6.70
2023-02-28T01:41:52.136Z,5.87
2023-02-28T01:42:25.743Z,6.60
2023-02-28T01:43:00.417Z,6.03
2023-02-28T01:43:35.713Z,6.20
2023-02-28T01:44:12.177Z,5.70
2023-02-28T01:45:11.091Z,6.20
2023-02-28T01:45:46.094Z,6.15
2023-02-28T01:46:21.396Z,6.43
2023-02-28T01:46:54.953Z,6.03
2023-02-28T01:47:29.419Z,7.10
2023-02-28T01:48:06.125Z,6.47
2023-02-28T01:48:43.244Z,6.05
2023-02-28T01:49:20.917Z,6.07
2023-02-28T01:49:55.437Z,5.75
2023-02-28T01:50:34.018Z,6.40
2023-02-28T01:51:08.989Z,5.93
2023-02-28T01:51:52.067Z,6.88
2023-02-28T01:52:26.691Z,6.75
2023-02-28T01:53:02.921Z,6.05
2023-02-28T01:53:42.437Z,7.05
2023-02-28T01:54:19.237Z,6.55
2023-02-28T01:54:55.309Z,6.00
2023-02-28T01:55:32.047Z,6.35
2023-02-28T01:56:07.304Z,6.45
2023-02-28T01:56:43.826Z,7.00
2023-02-28T01:57:20.607Z,6.38
2023-02-28T01:57:57.291Z,6.55
2023-02-28T01:58:32.083Z,6.70
2023-02-28T01:59:07.473Z,6.10
2023-02-28T01:59:46.870Z,6.13
2023-02-28T02:00:22.825Z,5.57
2023-02-28T02:01:00.357Z,5.65
2023-02-28T02:01:34.261Z,6.05
2023-02-28T02:02:08.489Z,6.22
2023-02-28T02:02:44.068Z,6.30
2023-02-28T02:03:20.579Z,6.25
2023-02-28T02:03:57.209Z,6.78
2023-02-28T02:04:37.559Z,6.82
2023-02-28T02:05:12.710Z,6.18
2023-02-28T02:05:49.220Z,6.93
2023-02-28T02:06:23.479Z,5.75
2023-02-28T02:06:57.213Z,6.38
2023-02-28T02:07:32.611Z,6.63
2023-02-28T02:08:09.282Z,6.30
2023-02-28T02:08:44.906Z,6.25
2023-02-28T02:09:18.823Z,6.10
2023-02-28T02:09:53.607Z,6.38
2023-02-28T02:10:31.884Z,5.93
2023-02-28T02:11:06.763Z,5.95
2023-02-28T02:11:42.306Z,6.32
2023-02-28T02:12:22.346Z,6.03
2023-02-28T02:13:09.043Z,5.55
2023-02-28T02:13:54.434Z,5.95
2023-02-28T02:14:40.843Z,5.30
2023-02-28T02:15:18.938Z,5.25
2023-02-28T02:15:59.201Z,5.05
2023-02-28T02:17:13.402Z,5.20
2023-02-28T02:17:50.089Z,4.80
2023-02-28T02:18:30.641Z,5.30
2023-02-28T02:19:14.161Z,6.03
2023-02-28T02:19:58.926Z,5.47
2023-02-28T02:20:49.717Z,5.05
2023-02-28T02:21:43.148Z,5.03
2023-02-28T02:22:30.703Z,5.68
2023-02-28T02:23:10.837Z,5.00
2023-02-28T02:24:36.357Z,4.13
2023-02-28T02:25:15.326Z,4.57
2023-02-28T02:25:52.215Z,4.45
2023-02-28T02:26:45.969Z,4.63
2023-02-28T02:27:29.086Z,4.93
2023-02-28T02:28:07.856Z,5.00
2023-02-28T02:29:01.973Z,5.97
2023-02-28T02:29:59.262Z,4.82
2023-02-28T02:30:53.959Z,5.43
2023-02-28T02:31:55.827Z,5.05
2023-02-28T02:32:40.782Z,5.13
2023-02-28T02:33:32.693Z,5.10
2023-02-28T02:34:24.372Z,4.63
2023-02-28T02:35:03.454Z,4.93
2023-02-28T02:35:42.090Z,4.88
2023-02-28T02:36:19.634Z,5.38
2023-02-28T02:36:56.394Z,5.35
2023-02-28T02:37:37.782Z,5.57
2023-02-28T02:38:17.448Z,5.15
2023-02-28T02:38:54.082Z,5.22
2023-02-28T02:39:33.278Z,5.43
2023-02-28T02:40:12.679Z,5.15
2023-02-28T02:40:50.600Z,4.45
2023-02-28T02:41:27.534Z,5.05
2023-02-28T02:42:04.622Z,5.45
2023-02-28T02:42:44.880Z,5.47
2023-02-28T02:43:21.518Z,5.10
2023-02-28T02:43:58.976Z,4.93
2023-02-28T02:44:36.890Z,4.82
2023-02-28T02:45:13.641Z,5.40
2023-02-28T02:45:49.663Z,5.18
2023-02-28T02:46:25.354Z,5.13
2023-02-28T02:47:01.458Z,5.78
2023-02-28T02:47:37.623Z,5.65
2023-02-28T02:48:14.786Z,5.63
2023-02-28T02:48:50.954Z,5.45
2023-02-28T02:49:26.949Z,5.80
2023-02-28T02:50:06.961Z,5.15
2023-02-28T02:50:44.333Z,5.25
2023-02-28T02:51:20.689Z,5.18
2023-02-28T02:51:56.498Z,5.80
2023-02-28T02:52:33.918Z,5.22
2023-02-28T02:53:09.676Z,4.65
2023-02-28T02:53:43.788Z,5.50
2023-02-28T02:54:20.706Z,5.35
2023-02-28T02:54:56.931Z,7.65
2023-02-28T02:55:30.278Z,5.47
2023-02-28T02:56:05.568Z,5.68
2023-02-28T02:56:41.529Z,5.47
2023-02-28T02:57:18.856Z,5.15
2023-02-28T02:57:55.811Z,5.53
2023-02-28T02:58:33.734Z,5.35
2023-02-28T02:59:10.947Z,4.97
2023-02-28T02:59:47.773Z,5.43
2023-02-28T03:00:25.317Z,5.00
2023-02-28T03:01:01.385Z,5.40
2023-02-28T03:01:35.143Z,4.82
2023-02-28T03:02:11.973Z,6.22
2023-02-28T03:02:48.590Z,5.13
2023-02-28T03:03:30.368Z,4.93
2023-02-28T03:04:07.473Z,4.85
2023-02-28T03:04:46.069Z,4.65
2023-02-28T03:05:25.457Z,4.78
2023-02-28T03:05:59.955Z,4.72
2023-02-28T03:06:34.680Z,5.22
2023-02-28T03:07:08.742Z,5.25
2023-02-28T03:07:42.875Z,5.30
2023-02-28T03:08:19.285Z,5.30
2023-02-28T03:08:52.703Z,5.60
2023-02-28T03:09:27.315Z,5.53
2023-02-28T03:10:03.069Z,5.28
2023-02-28T03:10:40.063Z,5.45
2023-02-28T03:11:16.574Z,5.50
2023-02-28T03:11:55.315Z,5.32
2023-02-28T03:12:35.033Z,5.45
2023-02-28T03:13:26.336Z,5.03
2023-02-28T03:14:24.768Z,4.85
2023-02-28T03:15:01.863Z,4.63
2023-02-28T03:15:39.238Z,4.95
2023-02-28T03:16:28.742Z,4.88
2023-02-28T03:17:15.027Z,4.40
2023-02-28T03:18:05.701Z,4.40
2023-02-28T03:18:42.034Z,4.65
2023-02-28T03:19:30.583Z,4.63
2023-02-28T03:20:08.725Z,4.28
2023-02-28T03:20:52.878Z,4.32
2023-02-28T03:21:31.470Z,4.43
2023-02-28T03:22:14.013Z,4.57
2023-02-28T03:22:54.463Z,4.57
2023-02-28T03:23:36.189Z,4.45
2023-02-28T03:24:10.855Z,3.75
2023-02-28T03:24:48.644Z,4.00
2023-02-28T03:25:24.614Z,5.47
2023-02-28T03:26:04.412Z,6.22
2023-02-28T03:26:42.652Z,7.40
2023-02-28T03:27:18.990Z,4.63
2023-02-28T03:27:59.515Z,5.15
2023-02-28T03:28:34.649Z,4.75
2023-02-28T03:29:13.996Z,4.60
2023-02-28T03:29:51.753Z,4.60
2023-02-28T03:30:27.380Z,4.43
2023-02-28T03:31:03.858Z,4.55
2023-02-28T03:31:41.249Z,4.35
2023-02-28T03:32:23.186Z,4.18
2023-02-28T03:32:59.276Z,4.00
2023-02-28T03:33:38.374Z,4.22
2023-02-28T03:34:13.594Z,4.10
2023-02-28T03:34:50.631Z,4.50
2023-02-28T03:35:27.342Z,4.95
2023-02-28T03:36:04.547Z,4.25
2023-02-28T03:36:45.522Z,4.38
2023-02-28T03:37:22.054Z,3.95
2023-02-28T03:37:59.474Z,3.97
2023-02-28T03:38:36.973Z,4.57
2023-02-28T03:39:13.800Z,4.53
2023-02-28T03:39:50.094Z,4.35
2023-02-28T03:40:26.843Z,4.22
2023-02-28T03:41:02.934Z,4.30
2023-02-28T03:41:41.498Z,3.85
2023-02-28T03:42:18.237Z,4.30
2023-02-28T03:42:54.518Z,4.05
2023-02-28T03:43:31.907Z,4.10
2023-02-28T03:44:08.234Z,4.18
2023-02-28T03:44:43.248Z,4.43
2023-02-28T03:45:19.775Z,3.88
2023-02-28T03:45:54.366Z,4.30
2023-02-28T03:46:32.008Z,8.35
2023-02-28T03:47:08.193Z,4.80
2023-02-28T03:47:44.761Z,5.90
2023-02-28T03:48:22.964Z,5.30
2023-02-28T03:48:59.162Z,4.32
2023-02-28T03:49:35.632Z,4.00
2023-02-28T03:50:11.816Z,4.10
2023-02-28T03:50:47.732Z,4.43
2023-02-28T03:51:24.492Z,4.07
2023-02-28T03:52:00.000Z,3.63
2023-02-28T03:52:36.653Z,3.88
2023-02-28T03:53:13.404Z,4.05
2023-02-28T03:53:50.535Z,4.05
2023-02-28T03:54:27.367Z,4.47
2023-02-28T03:55:04.417Z,4.30
2023-02-28T03:55:40.771Z,4.22
2023-02-28T03:56:17.798Z,4.57
2023-02-28T03:56:54.867Z,4.28
2023-02-28T03:57:33.164Z,3.60
2023-02-28T03:58:10.493Z,3.50
2023-02-28T03:58:46.546Z,3.60
2023-02-28T03:59:22.518Z,3.70
2023-02-28T04:00:01.522Z,4.18
2023-02-28T04:00:37.635Z,4.03
2023-02-28T04:01:14.589Z,4.50
2023-02-28T04:01:50.198Z,4.03
2023-02-28T04:02:24.264Z,3.60
2023-02-28T04:02:58.190Z,3.78
2023-02-28T04:03:33.999Z,3.90
2023-02-28T04:04:08.508Z,4.43
2023-02-28T04:04:50.112Z,4.22
2023-02-28T04:05:24.120Z,4.30
2023-02-28T04:06:00.593Z,4.07
2023-02-28T04:06:36.098Z,4.07
2023-02-28T04:07:10.985Z,4.05
2023-02-28T04:07:45.320Z,5.07
2023-02-28T04:08:19.949Z,4.20
2023-02-28T04:08:52.909Z,4.03
2023-02-28T04:09:29.458Z,4.30
2023-02-28T04:10:03.414Z,3.80
2023-02-28T04:10:37.810Z,4.00
2023-02-28T04:11:20.226Z,4.50
2023-02-28T04:11:54.912Z,4.30
2023-02-28T04:12:28.706Z,4.10
2023-02-28T04:13:03.019Z,4.22
2023-02-28T04:13:37.757Z,3.85
2023-02-28T04:14:12.465Z,4.28
2023-02-28T04:14:47.723Z,4.38
2023-02-28T04:15:24.432Z,4.43
2023-02-28T04:15:58.524Z,4.22
2023-02-28T04:16:35.836Z,4.35
2023-02-28T04:17:09.923Z,4.45
2023-02-28T04:17:45.979Z,5.00
2023-02-28T04:18:20.998Z,6.22
2023-02-28T04:18:55.099Z,7.32
2023-02-28T04:19:33.707Z,4.03
2023-02-28T04:20:11.774Z,3.65
2023-02-28T04:20:47.870Z,4.20
2023-02-28T04:21:24.339Z,4.47
2023-02-28T04:22:00.800Z,4.25
2023-02-28T04:22:37.506Z,3.15
2023-02-28T04:23:11.741Z,3.80
2023-02-28T04:23:46.088Z,4.20
2023-02-28T04:24:22.025Z,3.92
2023-02-28T04:24:56.156Z,3.60
2023-02-28T04:25:29.894Z,4.40
2023-02-28T04:26:09.482Z,4.07
2023-02-28T04:26:47.952Z,4.80
2023-02-28T04:27:24.298Z,3.97
2023-02-28T04:28:00.252Z,4.20
2023-02-28T04:28:34.524Z,3.80
2023-02-28T04:29:10.798Z,4.25
2023-02-28T04:29:46.489Z,4.15
2023-02-28T04:30:21.169Z,3.80
2023-02-28T04:30:57.845Z,4.10
2023-02-28T04:31:34.886Z,3.63
2023-02-28T04:32:10.422Z,3.72
2023-02-28T04:32:44.679Z,4.00
2023-02-28T04:33:26.951Z,3.78
2023-02-28T04:34:05.276Z,3.67
2023-02-28T04:34:39.923Z,3.58
2023-02-28T04:35:14.758Z,3.90
2023-02-28T04:35:49.025Z,3.92
2023-02-28T04:36:24.981Z,4.00
2023-02-28T04:37:16.488Z,3.53
2023-02-28T04:38:06.486Z,3.67
2023-02-28T04:39:02.109Z,3.53
2023-02-28T04:39:38.000Z,3.50
2023-02-28T04:40:13.674Z,4.00
2023-02-28T04:40:49.011Z,3.25
2023-02-28T04:41:23.839Z,3.50
2023-02-28T04:42:01.127Z,4.20
2023-02-28T04:42:37.466Z,3.33
2023-02-28T04:43:12.149Z,3.20
2023-02-28T04:43:47.399Z,3.85
2023-02-28T04:44:22.241Z,4.03
2023-02-28T04:44:57.503Z,3.85
2023-02-28T04:45:33.806Z,3.80
2023-02-28T04:46:08.595Z,3.75
2023-02-28T04:46:43.344Z,3.92
2023-02-28T04:47:17.418Z,3.88
2023-02-28T04:47:51.527Z,3.90
2023-02-28T04:48:26.896Z,3.40
2023-02-28T04:49:01.066Z,3.40
2023-02-28T04:49:35.310Z,4.00
2023-02-28T04:50:11.056Z,3.20
2023-02-28T04:50:45.285Z,3.53
2023-02-28T04:51:19.975Z,3.60
2023-02-28T04:51:55.656Z,3.88
2023-02-28T04:52:30.011Z,3.90
2023-02-28T04:53:05.863Z,4.05
2023-02-28T04:53:40.579Z,4.00
2023-02-28T04:54:17.240Z,3.63
2023-02-28T04:54:50.858Z,3.53
2023-02-28T04:55:24.322Z,3.58
2023-02-28T04:55:58.148Z,3.85
2023-02-28T04:56:32.554Z,3.72
2023-02-28T04:57:09.456Z,3.83
2023-02-28T04:57:44.286Z,3.83
2023-02-28T04:58:19.618Z,3.85
2023-02-28T04:58:54.231Z,4.05
2023-02-28T04:59:40.990Z,3.83
2023-02-28T05:00:18.359Z,3.67
2023-02-28T05:00:52.398Z,3.55
2023-02-28T05:01:29.890Z,3.50
2023-02-28T05:02:11.038Z,3.65
2023-02-28T05:02:47.389Z,3.72
2023-02-28T05:03:25.105Z,4.00
2023-02-28T05:04:00.885Z,3.15
2023-02-28T05:04:35.416Z,3.80
2023-02-28T05:05:11.693Z,4.03
2023-02-28T05:05:46.721Z,3.53
2023-02-28T05:06:21.422Z,3.75
2023-02-28T05:06:57.255Z,3.50
2023-02-28T05:07:31.406Z,4.45
2023-02-28T05:08:07.366Z,4.18
2023-02-28T05:08:41.553Z,3.97
2023-02-28T05:09:16.193Z,3.55
2023-02-28T05:09:52.403Z,4.00
2023-02-28T05:10:26.475Z,5.30
2023-02-28T05:11:02.465Z,3.75
2023-02-28T05:11:37.519Z,3.88
2023-02-28T05:12:13.696Z,3.65
2023-02-28T05:12:47.840Z,3.97
2023-02-28T05:13:22.058Z,4.00
2023-02-28T05:13:57.104Z,3.50
2023-02-28T05:14:31.597Z,3.88
2023-02-28T05:15:06.623Z,3.70
2023-02-28T05:15:42.174Z,3.58
2023-02-28T05:16:17.707Z,3.88
2023-02-28T05:16:51.310Z,3.28
2023-02-28T05:17:25.659Z,4.40
2023-02-28T05:18:00.271Z,3.70
2023-02-28T05:18:34.338Z,3.60
2023-02-28T05:19:09.786Z,3.70
2023-02-28T05:19:43.638Z,3.58
2023-02-28T05:20:17.462Z,3.60
2023-02-28T05:20:53.791Z,3.85
2023-02-28T05:21:30.604Z,3.40
2023-02-28T05:22:05.301Z,3.58
2023-02-28T05:22:41.933Z,3.85
2023-02-28T05:23:17.690Z,3.75
2023-02-28T05:23:51.970Z,4.72
2023-02-28T05:24:27.214Z,3.83
2023-02-28T05:25:04.748Z,4.68
2023-02-28T05:25:38.940Z,3.78
2023-02-28T05:26:14.646Z,4.18
2023-02-28T05:26:49.125Z,4.05
2023-02-28T05:27:23.811Z,4.00
2023-02-28T05:27:57.884Z,3.70
2023-02-28T05:28:32.978Z,3.78
2023-02-28T05:29:08.794Z,4.47
2023-02-28T05:29:44.936Z,3.53
2023-02-28T05:30:20.011Z,3.63
2023-02-28T05:30:55.585Z,3.25
2023-02-28T05:31:29.958Z,3.55
2023-02-28T05:32:05.030Z,3.30
2023-02-28T05:32:46.462Z,3.83
2023-02-28T05:33:21.662Z,3.35
2023-02-28T05:33:55.643Z,3.47
2023-02-28T05:34:30.605Z,4.30
2023-02-28T05:35:05.933Z,3.33
2023-02-28T05:35:40.833Z,3.45
2023-02-28T05:36:16.165Z,3.67
2023-02-28T05:36:51.326Z,3.33
2023-02-28T05:37:25.480Z,4.10
2023-02-28T05:38:00.869Z,3.55
2023-02-28T05:38:38.817Z,3.47
2023-02-28T05:39:14.654Z,3.00
2023-02-28T05:39:48.758Z,3.53
2023-02-28T05:40:22.329Z,3.50
2023-02-28T05:40:56.796Z,3.63
2023-02-28T05:41:32.380Z,3.58
2023-02-28T05:42:06.803Z,3.90
2023-02-28T05:42:40.673Z,3.90
2023-02-28T05:43:16.697Z,3.65
2023-02-28T05:43:50.484Z,3.53
2023-02-28T05:44:24.702Z,3.60
2023-02-28T05:45:01.134Z,3.92
2023-02-28T05:45:36.170Z,3.22
2023-02-28T05:46:11.088Z,3.90
2023-02-28T05:46:46.311Z,3.17
2023-02-28T05:47:19.917Z,3.50
2023-02-28T05:47:56.064Z,3.42
2023-02-28T05:48:31.012Z,3.47
2023-02-28T05:49:04.993Z,4.05
2023-02-28T05:49:39.833Z,4.65
2023-02-28T05:50:14.245Z,4.00
2023-02-28T05:50:48.571Z,3.60
2023-02-28T05:51:23.306Z,3.53
2023-02-28T05:51:57.382Z,3.60
2023-02-28T05:52:31.238Z,3.55
2023-02-28T05:53:07.875Z,3.92
2023-02-28T05:53:42.994Z,4.07
2023-02-28T05:54:16.486Z,4.00
2023-02-28T05:54:50.692Z,3.58
2023-02-28T05:55:24.317Z,3.63
2023-02-28T05:55:58.812Z,3.90
2023-02-28T05:56:36.156Z,3.63
2023-02-28T05:57:22.799Z,4.03
2023-02-28T05:57:58.544Z,3.70
2023-02-28T05:58:33.368Z,3.80
2023-02-28T05:59:09.716Z,4.00
2023-02-28T05:59:43.278Z,4.03
2023-02-28T06:00:19.629Z,4.28
2023-02-28T06:00:54.014Z,4.20
2023-02-28T06:01:34.486Z,3.75
2023-02-28T06:02:08.461Z,3.80
2023-02-28T06:02:43.038Z,3.83
2023-02-28T06:03:18.651Z,3.83
2023-02-28T06:03:51.955Z,3.85
2023-02-28T06:04:31.915Z,3.58
2023-02-28T06:05:40.348Z,2.78
2023-02-28T06:06:14.597Z,3.90
2023-02-28T06:06:48.372Z,3.47
2023-02-28T06:07:24.122Z,3.58
2023-02-28T06:07:58.265Z,4.03
2023-02-28T06:08:32.518Z,21.38
2023-02-28T06:09:09.116Z,5.63
2023-02-28T06:09:43.391Z,3.85
2023-02-28T06:10:18.559Z,3.58
2023-02-28T06:10:53.578Z,3.33
2023-02-28T06:11:28.869Z,3.72
2023-02-28T06:12:04.817Z,3.63
2023-02-28T06:12:41.019Z,3.80
2023-02-28T06:13:15.181Z,3.40
2023-02-28T06:13:48.803Z,3.85
2023-02-28T06:14:24.262Z,3.45
2023-02-28T06:14:57.706Z,3.58
2023-02-28T06:15:32.640Z,3.47
2023-02-28T06:16:08.991Z,3.60
2023-02-28T06:16:42.568Z,3.55
2023-02-28T06:17:16.956Z,3.47
2023-02-28T06:17:52.335Z,3.90
2023-02-28T06:18:26.563Z,3.85
2023-02-28T06:19:01.174Z,3.35
2023-02-28T06:19:36.104Z,3.95
2023-02-28T06:20:12.159Z,3.90
2023-02-28T06:20:46.212Z,3.80
2023-02-28T06:21:21.268Z,3.20
2023-02-28T06:21:55.406Z,3.75
2023-02-28T06:22:30.625Z,3.88
2023-02-28T06:23:05.427Z,3.83
2023-02-28T06:23:40.020Z,4.03
2023-02-28T06:24:15.618Z,4.20
2023-02-28T06:24:50.750Z,3.45
2023-02-28T06:25:25.261Z,3.63
2023-02-28T06:25:59.426Z,3.63
2023-02-28T06:26:35.330Z,3.58
2023-02-28T06:27:08.970Z,3.67
2023-02-28T06:27:46.097Z,3.85
2023-02-28T06:28:21.423Z,5.20
2023-02-28T06:28:55.516Z,3.60
2023-02-28T06:29:29.754Z,3.80
2023-02-28T06:30:03.571Z,3.55
2023-02-28T06:30:39.163Z,3.80
2023-02-28T06:31:14.868Z,3.85
2023-02-28T06:31:48.132Z,3.78
2023-02-28T06:32:24.642Z,3.40
2023-02-28T06:32:59.283Z,4.00
2023-02-28T06:33:35.119Z,3.67
2023-02-28T06:34:09.946Z,3.25
2023-02-28T06:34:45.738Z,3.50
2023-02-28T06:35:21.020Z,3.25
2023-02-28T06:35:54.966Z,3.72
2023-02-28T06:36:29.610Z,4.10
2023-02-28T06:37:03.903Z,3.55
2023-02-28T06:37:38.399Z,3.65
2023-02-28T06:38:13.928Z,3.75
2023-02-28T06:39:11.730Z,3.50
2023-02-28T06:39:50.538Z,3.70
2023-02-28T06:40:23.697Z,3.88
2023-02-28T06:41:01.344Z,3.85
2023-02-28T06:41:54.066Z,3.72
2023-02-28T06:42:31.999Z,3.78
2023-02-28T06:43:09.532Z,3.70
2023-02-28T06:43:46.739Z,4.20
2023-02-28T06:44:21.907Z,3.92
2023-02-28T06:44:58.114Z,4.07
2023-02-28T06:45:33.279Z,5.00
2023-02-28T06:46:09.988Z,4.00
2023-02-28T06:46:47.272Z,3.58
2023-02-28T06:47:21.337Z,4.07
2023-02-28T06:47:56.878Z,3.88
2023-02-28T06:48:30.652Z,3.78
2023-02-28T06:49:06.167Z,3.65
2023-02-28T06:50:03.325Z,3.55
2023-02-28T06:50:40.805Z,3.42
2023-02-28T06:51:19.097Z,4.45
2023-02-28T06:51:53.118Z,3.50
2023-02-28T06:52:28.574Z,3.67
2023-02-28T06:53:02.702Z,3.35
2023-02-28T06:53:50.850Z,3.88
2023-02-28T06:54:26.560Z,3.35
2023-02-28T06:55:01.889Z,3.67
2023-02-28T06:55:36.969Z,3.63
2023-02-28T06:56:12.858Z,3.70
2023-02-28T06:56:48.419Z,3.47
2023-02-28T06:57:22.595Z,3.65
2023-02-28T06:57:57.264Z,3.05
2023-02-28T06:58:33.846Z,3.50
2023-02-28T06:59:08.712Z,4.25
2023-02-28T06:59:43.723Z,4.35
2023-02-28T07:00:19.208Z,4.70
2023-02-28T07:00:53.807Z,3.90
2023-02-28T07:01:29.366Z,4.18
2023-02-28T07:02:04.213Z,3.85
2023-02-28T07:02:37.988Z,3.35
2023-02-28T07:03:12.965Z,4.18
2023-02-28T07:03:46.950Z,4.05
2023-02-28T07:04:25.061Z,3.80
2023-02-28T07:05:01.730Z,3.95
2023-02-28T07:05:37.690Z,3.70
2023-02-28T07:06:11.897Z,3.67
2023-02-28T07:06:46.768Z,3.45
2023-02-28T07:07:23.610Z,3.60
2023-02-28T07:07:58.704Z,3.33
2023-02-28T07:08:33.534Z,3.65
2023-02-28T07:09:09.072Z,3.45
2023-02-28T07:09:45.804Z,3.22
2023-02-28T07:10:22.746Z,3.72
2023-02-28T07:10:56.767Z,3.90
2023-02-28T07:11:32.328Z,3.72
2023-02-28T07:12:08.828Z,3.60
2023-02-28T07:12:42.064Z,3.63
2023-02-28T07:13:16.727Z,3.38
2023-02-28T07:13:52.020Z,3.35
2023-02-28T07:14:27.127Z,3.45
2023-02-28T07:15:00.737Z,3.67
2023-02-28T07:15:40.099Z,3.30
2023-02-28T07:16:14.850Z,3.20
2023-02-28T07:16:49.081Z,3.17
2023-02-28T07:17:28.005Z,3.30
2023-02-28T07:18:01.623Z,4.00
2023-02-28T07:18:37.168Z,3.47
2023-02-28T07:19:13.609Z,3.65
2023-02-28T07:19:48.885Z,3.25
2023-02-28T07:20:22.482Z,3.88
2023-02-28T07:20:56.125Z,3.80
2023-02-28T07:21:32.320Z,3.60
2023-02-28T07:22:06.850Z,3.88
2023-02-28T07:22:41.621Z,3.47
2023-02-28T07:23:15.580Z,7.38
2023-02-28T07:23:50.440Z,7.13
2023-02-28T07:24:26.935Z,3.58
2023-02-28T07:25:02.200Z,3.70
2023-02-28T07:25:37.745Z,3.17
2023-02-28T07:26:16.202Z,3.10
2023-02-28T07:26:50.370Z,3.45
2023-02-28T07:27:26.569Z,4.47
2023-02-28T07:28:02.414Z,3.55
2023-02-28T07:28:37.626Z,3.50
2023-02-28T07:29:13.558Z,3.50
2023-02-28T07:29:48.489Z,3.22
2023-02-28T07:30:22.745Z,3.35
2023-02-28T07:30:58.563Z,3.15
2023-02-28T07:31:33.545Z,3.45
2023-02-28T07:32:08.491Z,3.10
2023-02-28T07:32:44.735Z,2.85
2023-02-28T07:33:19.575Z,3.95
2023-02-28T07:33:55.537Z,3.33
2023-02-28T07:34:30.840Z,3.58
2023-02-28T07:35:04.516Z,3.35
2023-02-28T07:35:39.274Z,3.38
2023-02-28T07:36:16.850Z,3.63
2023-02-28T07:36:54.689Z,3.45
2023-02-28T07:37:28.536Z,3.20
2023-02-28T07:38:06.068Z,3.10
2023-02-28T07:38:41.063Z,3.17
2023-02-28T07:39:16.574Z,3.67
2023-02-28T07:39:51.158Z,3.35
2023-02-28T07:40:26.503Z,3.28
2023-02-28T07:41:02.052Z,3.38
2023-02-28T07:41:40.412Z,3.40
2023-02-28T07:42:14.609Z,3.67
2023-02-28T07:42:50.372Z,3.40
2023-02-28T07:43:24.906Z,3.90
2023-02-28T07:44:00.690Z,3.08
2023-02-28T07:44:37.277Z,2.63
2023-02-28T07:45:13.366Z,3.38
2023-02-28T07:45:49.157Z,3.10
2023-02-28T07:46:22.464Z,3.42
2023-02-28T07:46:57.485Z,3.53
2023-02-28T07:47:31.933Z,3.60
2023-02-28T07:48:07.486Z,3.42
2023-02-28T07:48:41.447Z,3.30
2023-02-28T07:49:16.598Z,3.30
2023-02-28T07:49:51.987Z,3.35
2023-02-28T07:50:30.849Z,3.38
2023-02-28T07:51:06.224Z,3.30
2023-02-28T07:51:40.903Z,3.33
2023-02-28T07:52:15.736Z,3.22
2023-02-28T07:52:50.716Z,3.45
2023-02-28T07:53:24.780Z,3.25
2023-02-28T07:53:59.611Z,3.63
2023-02-28T07:54:34.959Z,3.17
2023-02-28T07:55:11.118Z,3.17
2023-02-28T07:55:45.208Z,3.53
2023-02-28T07:56:21.462Z,3.38
2023-02-28T07:56:55.706Z,3.40
2023-02-28T07:57:35.117Z,3.50
2023-02-28T07:58:09.325Z,5.00
2023-02-28T07:58:45.024Z,3.80
2023-02-28T07:59:18.602Z,3.10
2023-02-28T07:59:52.476Z,3.28
2023-02-28T08:00:27.514Z,3.60
2023-02-28T08:01:07.613Z,2.95
2023-02-28T08:01:42.508Z,3.40
2023-02-28T08:02:16.312Z,3.33
2023-02-28T08:02:49.931Z,2.97
2023-02-28T08:03:26.203Z,3.60
2023-02-28T08:04:02.079Z,3.55
2023-02-28T08:04:40.997Z,3.45
2023-02-28T08:05:14.779Z,3.30